Time;durP1;ratioP1;P1;durP2;ratioP2;P2;SDS_P1;SDS_P2;PMS_P1;PMS_P2;Temp;Humidity;BMP_temperature;BMP_pressure;BME280_temperature;BME280_humidity;BME280_pressure;Samples;Min_cycle;Max_cycle;Signal;HPM_P1;HPM_P2
2022/04/25 00:01:59;;;;;;;;;;;3.40;99.90;;;;;;5064971;28;19951;-79
2022/04/25 00:04:25;;;;;;;;;;;3.40;99.90;;;;;;5063116;28;19971;-78
2022/04/25 00:06:52;;;;;;;;;;;3.50;99.90;;;;;;5055024;28;19932;-78
2022/04/25 00:09:19;;;;;;;;;;;3.50;99.90;;;;;;5063303;28;19929;-78
2022/04/25 00:11:49;;;;;;;;;;;3.70;99.90;;;;;;5057982;28;20404;-79
2022/04/25 00:14:16;;;;;;;;;;;3.80;99.90;;;;;;5056423;28;19928;-79
2022/04/25 00:16:43;;;;;;;;;;;3.80;99.90;;;;;;5062827;28;19951;-78
2022/04/25 00:19:09;;;;;;;;;;;3.80;99.90;;;;;;5063993;28;19925;-78
2022/04/25 00:21:36;;;;;;;;;;;3.80;99.90;;;;;;5064766;28;20200;-79
2022/04/25 00:24:08;;;;;;;;;;;3.70;99.90;;;;;;5065850;28;20010;-79
2022/04/25 00:26:35;;;;;;;;;;;3.60;99.90;;;;;;5063794;28;19930;-78
2022/04/25 00:29:01;;;;;;;;;;;3.60;99.90;;;;;;5064131;28;19932;-78
2022/04/25 00:31:28;;;;;;;;;;;3.60;99.90;;;;;;5064438;28;19928;-79
2022/04/25 00:33:58;;;;;;;;;;;3.60;99.90;;;;;;5060021;28;20442;-78
2022/04/25 00:36:24;;;;;;;;;;;3.60;99.90;;;;;;5064579;28;19972;-78
2022/04/25 00:38:51;;;;;;;;;;;3.60;99.90;;;;;;5062902;28;19928;-78
2022/04/25 00:41:18;;;;;;;;;;;3.60;99.90;;;;;;5067149;28;20484;-78
2022/04/25 00:43:44;;;;;;;;;;;3.70;99.90;;;;;;5066187;28;19940;-78
2022/04/25 00:46:21;;;;;;;;;;;3.70;99.90;;;;;;5067439;28;20643;-78
2022/04/25 00:48:48;;;;;;;;;;;3.80;99.90;;;;;;5064806;28;19932;-78
2022/04/25 00:51:16;;;;;;;;;;;3.80;99.90;;;;;;5062464;28;19924;-78
2022/04/25 00:53:43;;;;;;;;;;;3.80;99.90;;;;;;5066464;28;19931;-78
2022/04/25 00:56:15;;;;;;;;;;;3.70;99.90;;;;;;5070923;28;19924;-78
2022/04/25 00:58:45;;;;;;;;;;;3.70;99.90;;;;;;5062741;28;19932;-78
2022/04/25 01:01:13;;;;;;;;;;;3.80;99.90;;;;;;5067054;28;19932;-78
2022/04/25 01:03:40;;;;;;;;;;;3.80;99.90;;;;;;5069098;28;20109;-78
2022/04/25 01:06:06;;;;;;;;;;;3.80;99.90;;;;;;5062730;28;20399;-78
2022/04/25 01:08:34;;;;;;;;;;;3.90;99.90;;;;;;5067789;28;19940;-78
2022/04/25 01:11:04;;;;;;;;;;;4.00;99.90;;;;;;5069197;28;20460;-78
2022/04/25 01:13:32;;;;;;;;;;;4.10;99.90;;;;;;5067755;28;19928;-78
2022/04/25 01:15:58;;;;;;;;;;;4.10;99.90;;;;;;5068131;28;19931;-78
2022/04/25 01:18:25;;;;;;;;;;;4.20;99.90;;;;;;5066730;28;20007;-78
2022/04/25 01:20:52;;;;;;;;;;;4.30;99.90;;;;;;5063192;28;20391;-78
2022/04/25 01:29:06;;;;;;;;;;;4.30;99.90;;;;;;5043474;28;20398;-79
2022/04/25 01:31:33;;;;;;;;;;;4.30;99.90;;;;;;5065610;28;20003;-79
2022/04/25 01:34:00;;;;;;;;;;;4.30;99.90;;;;;;5066778;28;20238;-79
2022/04/25 01:36:26;;;;;;;;;;;4.40;99.90;;;;;;5059739;28;19924;-79
2022/04/25 01:38:53;;;;;;;;;;;4.40;99.90;;;;;;5068944;28;19931;-78
2022/04/25 01:41:20;;;;;;;;;;;4.50;99.90;;;;;;5064162;28;20158;-78
2022/04/25 01:43:47;;;;;;;;;;;4.50;99.90;;;;;;5065586;28;19931;-78
2022/04/25 01:46:14;;;;;;;;;;;4.50;99.90;;;;;;5063839;28;20399;-79
2022/04/25 01:48:40;;;;;;;;;;;4.60;99.90;;;;;;5067408;28;19936;-78
2022/04/25 01:51:07;;;;;;;;;;;4.60;99.90;;;;;;5061020;28;20117;-79
2022/04/25 01:53:34;;;;;;;;;;;4.60;99.90;;;;;;5068911;28;20294;-79
2022/04/25 01:56:00;;;;;;;;;;;4.60;99.90;;;;;;5068030;28;19934;-79
2022/04/25 01:58:27;;;;;;;;;;;4.60;99.90;;;;;;5068181;28;19930;-79
2022/04/25 02:00:53;;;;;;;;;;;4.60;99.90;;;;;;5066401;28;19928;-79
2022/04/25 02:03:20;;;;;;;;;;;4.50;99.90;;;;;;5067050;28;19928;-79
2022/04/25 02:05:47;;;;;;;;;;;4.50;99.90;;;;;;5092572;28;19932;-79
2022/04/25 02:08:14;;;;;;;;;;;4.50;99.90;;;;;;5068082;28;19924;-79
2022/04/25 02:11:18;;;;;;;;;;;4.50;99.90;;;;;;5067504;28;19928;-78
2022/04/25 02:13:27;;;;;;;;;;;4.40;99.90;;;;;;5067768;28;19930;-79
2022/04/25 02:15:54;;;;;;;;;;;4.30;99.90;;;;;;5065399;28;19930;-78
2022/04/25 02:18:20;;;;;;;;;;;4.20;99.90;;;;;;5063856;28;20023;-79
2022/04/25 02:20:47;;;;;;;;;;;4.10;99.90;;;;;;5063653;28;19964;-79
2022/04/25 02:23:14;;;;;;;;;;;4.00;99.90;;;;;;5067030;28;19924;-79
2022/04/25 02:25:41;;;;;;;;;;;3.90;99.90;;;;;;5068862;28;20450;-78
2022/04/25 02:28:10;;;;;;;;;;;3.70;99.90;;;;;;5066682;28;19931;-79
2022/04/25 02:30:37;;;;;;;;;;;3.60;99.90;;;;;;5065628;28;19924;-79
2022/04/25 02:33:06;;;;;;;;;;;3.50;99.90;;;;;;5062459;28;19924;-78
2022/04/25 02:35:33;;;;;;;;;;;3.60;99.90;;;;;;5062149;28;19932;-78
2022/04/25 02:37:59;;;;;;;;;;;3.60;99.90;;;;;;5061903;28;19933;-78
2022/04/25 02:40:26;;;;;;;;;;;3.50;99.90;;;;;;5067336;28;20011;-78
2022/04/25 02:42:52;;;;;;;;;;;3.40;99.90;;;;;;5091866;28;19976;-78
2022/04/25 02:45:19;;;;;;;;;;;3.30;99.90;;;;;;5065886;28;19925;-78
2022/04/25 02:47:46;;;;;;;;;;;3.10;99.90;;;;;;5064016;28;19944;-79
2022/04/25 02:50:12;;;;;;;;;;;3.10;99.90;;;;;;5070261;28;19978;-78
2022/04/25 02:52:39;;;;;;;;;;;3.10;99.90;;;;;;5065465;28;20409;-78
2022/04/25 02:55:06;;;;;;;;;;;3.10;99.90;;;;;;5065163;28;19924;-78
2022/04/25 02:57:33;;;;;;;;;;;3.00;99.90;;;;;;5058550;28;19947;-78
2022/04/25 03:00:00;;;;;;;;;;;2.80;99.90;;;;;;5065396;28;20322;-78
2022/04/25 03:02:27;;;;;;;;;;;2.80;99.90;;;;;;5062353;28;19924;-78
2022/04/25 03:04:53;;;;;;;;;;;2.70;99.90;;;;;;5066209;28;19936;-76
2022/04/25 03:07:20;;;;;;;;;;;2.60;99.90;;;;;;5060662;28;19928;-77
2022/04/25 03:09:47;;;;;;;;;;;2.50;99.90;;;;;;5065878;28;19951;-77
2022/04/25 03:12:13;;;;;;;;;;;2.50;99.90;;;;;;5061672;28;19958;-76
2022/04/25 03:14:40;;;;;;;;;;;2.60;99.90;;;;;;5064744;28;19932;-77
2022/04/25 03:17:07;;;;;;;;;;;2.60;99.90;;;;;;5063683;28;19929;-77
2022/04/25 03:19:33;;;;;;;;;;;2.60;99.90;;;;;;5066060;28;20302;-78
2022/04/25 03:22:01;;;;;;;;;;;2.50;99.90;;;;;;5065750;28;19938;-77
2022/04/25 03:24:27;;;;;;;;;;;2.50;99.90;;;;;;5062883;28;20353;-77
2022/04/25 03:26:55;;;;;;;;;;;2.50;99.90;;;;;;5064434;28;19925;-77
2022/04/25 03:29:21;;;;;;;;;;;2.50;99.90;;;;;;5063615;28;20589;-77
2022/04/25 03:31:48;;;;;;;;;;;2.50;99.90;;;;;;5066692;28;19924;-77
2022/04/25 03:34:15;;;;;;;;;;;2.60;99.90;;;;;;5064942;28;20338;-77
2022/04/25 03:36:44;;;;;;;;;;;2.60;99.90;;;;;;5063144;28;19939;-75
2022/04/25 03:39:11;;;;;;;;;;;2.50;99.90;;;;;;5062788;28;19931;-75
2022/04/25 03:41:37;;;;;;;;;;;2.40;99.90;;;;;;5088168;28;19924;-75
2022/04/25 03:44:04;;;;;;;;;;;2.30;99.90;;;;;;5065330;28;19925;-75
2022/04/25 03:46:31;;;;;;;;;;;2.30;99.90;;;;;;5061773;28;20445;-75
2022/04/25 03:48:57;;;;;;;;;;;2.30;99.90;;;;;;5063639;28;20412;-75
2022/04/25 03:51:24;;;;;;;;;;;2.50;99.90;;;;;;5060879;28;19932;-75
2022/04/25 03:53:50;;;;;;;;;;;2.50;99.90;;;;;;5062009;28;19980;-75
2022/04/25 03:59:02;;;;;;;;;;;2.60;99.90;;;;;;5063911;28;20019;-75
2022/04/25 04:01:31;;;;;;;;;;;2.70;99.90;;;;;;5063040;28;19924;-75
2022/04/25 04:04:04;;;;;;;;;;;2.70;99.90;;;;;;5056673;28;19933;-75
2022/04/25 04:06:32;;;;;;;;;;;2.80;99.90;;;;;;5056202;28;20458;-75
2022/04/25 04:08:59;;;;;;;;;;;3.00;99.90;;;;;;5057941;28;19944;-75
2022/04/25 04:11:46;;;;;;;;;;;3.10;99.90;;;;;;5051885;28;20457;-75
2022/04/25 04:14:12;;;;;;;;;;;3.20;99.90;;;;;;5053583;28;20022;-75
2022/04/25 04:16:39;;;;;;;;;;;3.40;99.90;;;;;;5065585;28;20397;-75
2022/04/25 04:19:06;;;;;;;;;;;3.50;99.90;;;;;;5061154;28;19929;-75
2022/04/25 04:21:32;;;;;;;;;;;3.60;99.90;;;;;;5068861;28;20606;-75
2022/04/25 04:24:01;;;;;;;;;;;3.70;99.90;;;;;;5070185;28;20226;-75
2022/04/25 04:26:28;;;;;;;;;;;3.80;99.90;;;;;;5067656;28;19925;-75
2022/04/25 04:28:56;;;;;;;;;;;3.90;99.90;;;;;;5065084;28;19934;-75
2022/04/25 04:31:22;;;;;;;;;;;3.90;99.90;;;;;;5068940;28;20383;-75
2022/04/25 04:33:49;;;;;;;;;;;4.00;99.90;;;;;;5064096;28;19968;-75
2022/04/25 04:36:18;;;;;;;;;;;4.10;99.90;;;;;;5052172;28;19924;-75
2022/04/25 04:38:47;;;;;;;;;;;4.10;99.90;;;;;;5055342;28;19928;-75
2022/04/25 04:41:14;;;;;;;;;;;4.10;99.90;;;;;;5061884;28;19924;-75
2022/04/25 04:43:41;;;;;;;;;;;4.10;99.90;;;;;;5065188;28;19931;-75
2022/04/25 04:46:08;;;;;;;;;;;4.10;99.90;;;;;;5061847;28;19924;-75
2022/04/25 04:48:34;;;;;;;;;;;4.20;99.90;;;;;;5064953;28;19955;-75
2022/04/25 04:51:01;;;;;;;;;;;4.20;99.90;;;;;;5065978;28;19931;-75
2022/04/25 04:53:28;;;;;;;;;;;4.30;99.90;;;;;;5064748;28;20397;-75
2022/04/25 04:56:01;;;;;;;;;;;4.30;99.90;;;;;;5059331;28;20492;-76
2022/04/25 04:58:28;;;;;;;;;;;4.40;99.90;;;;;;5059376;28;19940;-75
2022/04/25 05:00:54;;;;;;;;;;;4.40;99.90;;;;;;5063737;28;19924;-75
2022/04/25 05:03:25;;;;;;;;;;;4.40;99.90;;;;;;5067297;28;20315;-76
2022/04/25 05:05:52;;;;;;;;;;;4.40;99.90;;;;;;5068121;28;19947;-75
2022/04/25 05:08:19;;;;;;;;;;;4.30;99.90;;;;;;5095522;28;19925;-75
2022/04/25 05:10:46;;;;;;;;;;;4.30;99.90;;;;;;5070416;28;19935;-75
2022/04/25 05:13:16;;;;;;;;;;;4.30;99.90;;;;;;5065788;28;19924;-76
2022/04/25 05:15:42;;;;;;;;;;;4.20;99.90;;;;;;5065187;28;20140;-75
2022/04/25 05:18:09;;;;;;;;;;;4.20;99.90;;;;;;5091700;28;19959;-76
2022/04/25 05:20:36;;;;;;;;;;;4.20;99.90;;;;;;5064900;28;20327;-76
2022/04/25 05:23:10;;;;;;;;;;;4.20;99.90;;;;;;5064764;28;20049;-76
2022/04/25 05:25:40;;;;;;;;;;;4.20;99.90;;;;;;5067801;28;19924;-76
2022/04/25 05:28:06;;;;;;;;;;;4.20;99.90;;;;;;5062801;28;19924;-75
2022/04/25 05:30:33;;;;;;;;;;;4.30;99.90;;;;;;5062717;28;19943;-76
2022/04/25 05:33:03;;;;;;;;;;;4.40;99.90;;;;;;5066843;28;20707;-76
2022/04/25 05:35:30;;;;;;;;;;;4.60;99.90;;;;;;5061659;28;19928;-76
2022/04/25 05:37:57;;;;;;;;;;;4.90;99.90;;;;;;5066642;28;19948;-76
2022/04/25 05:40:26;;;;;;;;;;;5.20;99.90;;;;;;5065416;28;20023;-76
2022/04/25 05:42:57;;;;;;;;;;;5.60;99.90;;;;;;5066365;28;19931;-74
2022/04/25 05:45:24;;;;;;;;;;;6.10;99.90;;;;;;5065185;28;19976;-74
2022/04/25 05:47:54;;;;;;;;;;;6.70;99.90;;;;;;5066243;28;20321;-74
2022/04/25 05:53:06;;;;;;;;;;;7.30;99.90;;;;;;5066222;28;19924;-74
2022/04/25 05:55:33;;;;;;;;;;;7.70;99.90;;;;;;5065416;28;19961;-75
2022/04/25 05:58:02;;;;;;;;;;;8.80;99.90;;;;;;5065645;28;19943;-77
2022/04/25 06:00:31;;;;;;;;;;;9.80;99.90;;;;;;5061925;28;19956;-77
2022/04/25 06:02:58;;;;;;;;;;;10.90;99.90;;;;;;5098453;27;19931;-74
2022/04/25 06:05:25;;;;;;;;;;;11.50;99.90;;;;;;5057087;28;19931;-74
2022/04/25 06:07:52;;;;;;;;;;;12.30;99.90;;;;;;5065391;28;19932;-73
2022/04/25 06:10:28;;;;;;;;;;;13.10;99.90;;;;;;5056709;28;20019;-75
2022/04/25 06:12:55;;;;;;;;;;;13.70;99.90;;;;;;5062852;28;19928;-74
2022/04/25 06:15:24;;;;;;;;;;;13.90;99.90;;;;;;5063524;28;19994;-75
2022/04/25 06:17:52;;;;;;;;;;;13.60;99.90;;;;;;5061283;28;19971;-74
2022/04/25 06:20:19;;;;;;;;;;;13.40;99.90;;;;;;5067039;28;19932;-74
2022/04/25 06:22:53;;;;;;;;;;;13.40;99.90;;;;;;5060460;28;19933;-76
2022/04/25 06:25:20;;;;;;;;;;;13.50;99.90;;;;;;5059777;28;20464;-74
2022/04/25 06:27:47;;;;;;;;;;;13.60;99.90;;;;;;5059297;28;19948;-77
2022/04/25 06:30:14;;;;;;;;;;;13.20;99.90;;;;;;5090295;28;20364;-76
2022/04/25 06:32:40;;;;;;;;;;;13.20;99.90;;;;;;5057221;28;19924;-76
2022/04/25 06:35:10;;;;;;;;;;;13.30;99.90;;;;;;5058431;28;19933;-74
2022/04/25 06:37:37;;;;;;;;;;;13.40;99.90;;;;;;5054798;28;19928;-74
2022/04/25 06:40:04;;;;;;;;;;;13.80;99.90;;;;;;5060354;28;20709;-74
2022/04/25 06:42:31;;;;;;;;;;;14.60;99.90;;;;;;5067388;28;19970;-74
2022/04/25 06:45:00;;;;;;;;;;;15.10;99.90;;;;;;5065972;28;19928;-73
2022/04/25 06:47:26;;;;;;;;;;;15.50;99.90;;;;;;5067138;28;19925;-74
2022/04/25 06:49:54;;;;;;;;;;;16.50;99.90;;;;;;5062184;28;20045;-74
2022/04/25 06:52:21;;;;;;;;;;;16.90;99.90;;;;;;5065483;28;20402;-74
2022/04/25 06:54:48;;;;;;;;;;;16.60;99.90;;;;;;5065379;28;20310;-74
2022/04/25 06:57:14;;;;;;;;;;;17.10;99.90;;;;;;5062323;28;19929;-74
2022/04/25 06:59:43;;;;;;;;;;;16.80;99.90;;;;;;5067154;28;19931;-74
2022/04/25 07:02:10;;;;;;;;;;;16.20;99.90;;;;;;5065953;28;20002;-74
2022/04/25 07:04:38;;;;;;;;;;;15.40;99.90;;;;;;5066081;28;20257;-76
2022/04/25 07:07:04;;;;;;;;;;;14.50;99.90;;;;;;5063984;28;20012;-76
2022/04/25 07:09:33;;;;;;;;;;;13.80;99.90;;;;;;5068800;28;20295;-74
2022/04/25 07:12:01;;;;;;;;;;;13.90;99.90;;;;;;5062413;28;19986;-74
2022/04/25 07:14:28;;;;;;;;;;;14.60;99.90;;;;;;5050236;28;19971;-74
2022/04/25 07:17:02;;;;;;;;;;;14.50;99.90;;;;;;5059608;28;19932;-74
2022/04/25 07:19:29;;;;;;;;;;;14.20;99.90;;;;;;5058127;28;19929;-74
2022/04/25 07:30:16;;;;;;;;;;;15.60;99.90;;;;;;5062818;28;20358;-75
2022/04/25 07:32:43;;;;;;;;;;;15.90;99.90;;;;;;5059340;28;19934;-75
2022/04/25 07:35:09;;;;;;;;;;;15.80;99.90;;;;;;5058046;28;19932;-75
2022/04/25 07:37:36;;;;;;;;;;;15.50;99.90;;;;;;5060785;28;19936;-75
2022/04/25 07:40:06;;;;;;;;;;;15.80;99.90;;;;;;5060487;28;20378;-74
2022/04/25 07:42:38;;;;;;;;;;;16.10;99.90;;;;;;5064402;28;19928;-74
2022/04/25 07:45:05;;;;;;;;;;;16.20;99.90;;;;;;5060418;28;20395;-75
2022/04/25 07:47:32;;;;;;;;;;;16.30;99.90;;;;;;5059099;28;19924;-75
2022/04/25 07:49:59;;;;;;;;;;;16.60;99.90;;;;;;5058738;28;20404;-74
2022/04/25 07:52:26;;;;;;;;;;;16.30;99.90;;;;;;5059810;28;19987;-74
2022/04/25 07:54:55;;;;;;;;;;;16.60;99.90;;;;;;5058725;28;19929;-75
2022/04/25 07:57:25;;;;;;;;;;;17.60;99.90;;;;;;5057251;28;19925;-75
2022/04/25 07:59:51;;;;;;;;;;;18.30;99.90;;;;;;5053322;28;20008;-75
2022/04/25 08:02:18;;;;;;;;;;;18.30;99.90;;;;;;5063003;28;19930;-75
2022/04/25 08:04:45;;;;;;;;;;;18.80;99.90;;;;;;5059493;28;20669;-75
2022/04/25 08:07:12;;;;;;;;;;;19.00;99.90;;;;;;5067339;28;20453;-75
2022/04/25 08:09:39;;;;;;;;;;;19.50;99.90;;;;;;5062169;28;20235;-75
2022/04/25 08:18:01;;;;;;;;;;;18.40;99.90;;;;;;5065085;28;19924;-74
2022/04/25 08:20:28;;;;;;;;;;;17.50;99.90;;;;;;5061680;28;19924;-75
2022/04/25 08:22:56;;;;;;;;;;;17.00;99.90;;;;;;5063438;28;19928;-74
2022/04/25 08:25:23;;;;;;;;;;;16.40;99.90;;;;;;5062275;28;19929;-74
2022/04/25 08:27:53;;;;;;;;;;;16.40;99.90;;;;;;5060978;28;19933;-75
2022/04/25 08:30:21;;;;;;;;;;;16.20;99.90;;;;;;5059724;28;20310;-75
2022/04/25 08:32:47;;;;;;;;;;;16.30;99.90;;;;;;5063627;28;19925;-74
2022/04/25 08:35:14;;;;;;;;;;;16.10;99.90;;;;;;5062756;28;19964;-75
2022/04/25 08:37:41;;;;;;;;;;;16.40;99.90;;;;;;5056912;28;19971;-75
2022/04/25 08:40:08;;;;;;;;;;;16.80;99.90;;;;;;5059979;28;20015;-74
2022/04/25 08:42:35;;;;;;;;;;;17.00;99.90;;;;;;5063181;28;20031;-74
2022/04/25 08:45:12;;;;;;;;;;;17.20;99.90;;;;;;5064475;28;19929;-75
2022/04/25 08:47:47;;;;;;;;;;;17.50;99.90;;;;;;5061337;28;19924;-75
2022/04/25 08:50:18;;;;;;;;;;;17.90;99.90;;;;;;5065476;28;20375;-75
2022/04/25 08:52:48;;;;;;;;;;;19.00;99.90;;;;;;5057268;28;19924;-75
2022/04/25 08:55:15;;;;;;;;;;;19.30;99.90;;;;;;5058082;28;19929;-75
2022/04/25 08:57:42;;;;;;;;;;;19.60;99.90;;;;;;5059633;28;19931;-73
2022/04/25 09:00:10;;;;;;;;;;;19.30;99.90;;;;;;5057699;28;19925;-76
2022/04/25 09:02:41;;;;;;;;;;;18.70;99.90;;;;;;5053454;28;19924;-74
2022/04/25 09:05:08;;;;;;;;;;;17.70;99.90;;;;;;5065738;28;19955;-74
2022/04/25 09:07:37;;;;;;;;;;;16.90;99.90;;;;;;5063910;28;20395;-74
2022/04/25 09:10:08;;;;;;;;;;;17.20;99.90;;;;;;5068649;28;20208;-75
2022/04/25 09:12:35;;;;;;;;;;;18.10;99.90;;;;;;5065442;28;19925;-75
2022/04/25 09:15:08;;;;;;;;;;;19.00;99.90;;;;;;5061609;28;20294;-74
2022/04/25 09:17:53;;;;;;;;;;;18.80;99.90;;;;;;5055788;28;19939;-75
2022/04/25 09:20:20;;;;;;;;;;;18.60;99.90;;;;;;5062505;28;19931;-75
2022/04/25 09:22:47;;;;;;;;;;;19.20;99.90;;;;;;5065418;28;19928;-75
2022/04/25 09:25:17;;;;;;;;;;;20.00;99.90;;;;;;5066219;28;19928;-75
2022/04/25 09:28:08;;;;;;;;;;;21.40;99.90;;;;;;5064608;28;19931;-75
2022/04/25 09:30:34;;;;;;;;;;;21.20;99.90;;;;;;5060705;28;19925;-75
2022/04/25 09:33:01;;;;;;;;;;;20.80;99.90;;;;;;5061774;28;19932;-75
2022/04/25 09:35:29;;;;;;;;;;;20.70;99.90;;;;;;5062434;28;19979;-75
2022/04/25 09:37:57;;;;;;;;;;;20.30;99.90;;;;;;5065568;28;19932;-75
2022/04/25 09:40:25;;;;;;;;;;;20.00;99.90;;;;;;5068561;28;20391;-75
2022/04/25 09:43:06;;;;;;;;;;;19.50;99.90;;;;;;5063076;28;20379;-75
2022/04/25 09:45:33;;;;;;;;;;;18.70;99.90;;;;;;5059679;28;20310;-75
2022/04/25 09:48:00;;;;;;;;;;;17.90;99.90;;;;;;5067541;28;19924;-75
2022/04/25 09:50:29;;;;;;;;;;;17.70;99.90;;;;;;5066355;28;20023;-75
2022/04/25 09:53:13;;;;;;;;;;;18.70;99.90;;;;;;5061568;28;19952;-75
2022/04/25 09:55:40;;;;;;;;;;;21.00;99.90;;;;;;5065217;28;19925;-76
2022/04/25 09:58:19;;;;;;;;;;;22.80;99.90;;;;;;5065552;28;19924;-75
2022/04/25 10:00:46;;;;;;;;;;;23.70;97.10;;;;;;5075922;28;19924;-75
2022/04/25 10:03:14;;;;;;;;;;;23.90;97.40;;;;;;5061770;28;19924;-76
2022/04/25 10:05:45;;;;;;;;;;;24.60;97.50;;;;;;5059751;28;19971;-76
2022/04/25 10:08:13;;;;;;;;;;;24.10;96.60;;;;;;5060100;28;20015;-74
2022/04/25 10:10:44;;;;;;;;;;;23.20;95.80;;;;;;5062718;28;20165;-74
2022/04/25 10:13:17;;;;;;;;;;;22.60;95.80;;;;;;5057021;28;19952;-74
2022/04/25 10:15:44;;;;;;;;;;;21.30;97.80;;;;;;5063149;28;20418;-74
2022/04/25 10:18:11;;;;;;;;;;;20.20;98.50;;;;;;5063136;28;19924;-74
2022/04/25 10:20:40;;;;;;;;;;;19.00;99.10;;;;;;5067490;28;19968;-74
2022/04/25 10:23:09;;;;;;;;;;;18.70;99.90;;;;;;5065444;28;19943;-75
2022/04/25 10:25:36;;;;;;;;;;;18.70;99.60;;;;;;5066588;28;20375;-74
2022/04/25 10:28:05;;;;;;;;;;;18.50;99.80;;;;;;5062300;28;19939;-75
2022/04/25 10:30:33;;;;;;;;;;;18.30;99.90;;;;;;5065889;28;20381;-75
2022/04/25 10:33:19;;;;;;;;;;;18.20;99.80;;;;;;5064698;28;20238;-74
2022/04/25 10:35:47;;;;;;;;;;;18.00;99.90;;;;;;5067734;28;19967;-75
2022/04/25 10:38:48;;;;;;;;;;;17.90;99.90;;;;;;5058303;28;19933;-74
2022/04/25 10:44:31;;;;;;;;;;;18.00;99.90;;;;;;5060664;28;19924;-75
2022/04/25 10:47:09;;;;;;;;;;;18.00;99.90;;;;;;5055197;28;19924;-75
2022/04/25 10:49:41;;;;;;;;;;;18.60;99.90;;;;;;5065897;28;19925;-75
2022/04/25 10:52:26;;;;;;;;;;;19.30;99.90;;;;;;5064264;28;20156;-76
2022/04/25 10:55:09;;;;;;;;;;;20.00;99.90;;;;;;5062662;28;19929;-76
2022/04/25 10:57:36;;;;;;;;;;;20.90;99.10;;;;;;5065173;28;19928;-75
2022/04/25 11:00:29;;;;;;;;;;;22.40;99.10;;;;;;5087909;28;20351;-75
2022/04/25 11:03:04;;;;;;;;;;;23.20;97.80;;;;;;5048591;28;19971;-75
2022/04/25 11:05:31;;;;;;;;;;;22.50;97.00;;;;;;5058614;28;19930;-75
2022/04/25 11:08:20;;;;;;;;;;;22.20;97.00;;;;;;5059470;28;19925;-75
2022/04/25 11:11:02;;;;;;;;;;;22.10;97.30;;;;;;5060886;28;19954;-75
2022/04/25 11:13:48;;;;;;;;;;;22.40;96.70;;;;;;5057184;28;19924;-75
2022/04/25 11:16:23;;;;;;;;;;;21.90;96.80;;;;;;5055796;28;20031;-76
2022/04/25 11:19:09;;;;;;;;;;;23.40;96.80;;;;;;5051701;28;20283;-75
2022/04/25 11:21:40;;;;;;;;;;;23.60;96.30;;;;;;5052771;28;19930;-75
2022/04/25 11:24:25;;;;;;;;;;;23.70;95.70;;;;;;5056030;28;19955;-75
2022/04/25 11:26:52;;;;;;;;;;;23.50;95.80;;;;;;5053689;28;20019;-74
2022/04/25 11:29:19;;;;;;;;;;;23.10;96.00;;;;;;5063327;28;19932;-74
2022/04/25 11:31:45;;;;;;;;;;;22.60;96.00;;;;;;5056020;28;19933;-75
2022/04/25 11:34:13;;;;;;;;;;;22.70;96.50;;;;;;5057285;28;19928;-75
2022/04/25 11:36:41;;;;;;;;;;;23.50;96.50;;;;;;5058343;28;19928;-75
2022/04/25 11:41:54;;;;;;;;;;;25.00;95.00;;;;;;5063151;28;19939;-76
2022/04/25 11:44:21;;;;;;;;;;;25.40;94.90;;;;;;5066773;28;20061;-75
2022/04/25 11:46:49;;;;;;;;;;;24.10;94.40;;;;;;5062452;28;19924;-75
2022/04/25 11:49:32;;;;;;;;;;;23.20;94.70;;;;;;5059482;28;20402;-75
2022/04/25 11:52:01;;;;;;;;;;;22.20;95.30;;;;;;5060587;28;20436;-75
2022/04/25 11:54:32;;;;;;;;;;;21.30;95.60;;;;;;5059526;28;20116;-74
2022/04/25 11:57:00;;;;;;;;;;;20.90;95.80;;;;;;5055050;28;19928;-74
2022/04/25 11:59:27;;;;;;;;;;;20.70;96.40;;;;;;5058473;28;20389;-74
2022/04/25 12:01:54;;;;;;;;;;;20.70;96.70;;;;;;5060754;28;19971;-74
2022/04/25 12:04:23;;;;;;;;;;;20.80;96.70;;;;;;5058520;28;20043;-76
2022/04/25 12:06:57;;;;;;;;;;;20.60;96.60;;;;;;5059552;28;19929;-75
2022/04/25 12:17:53;;;;;;;;;;;20.80;96.70;;;;;;5061737;28;19996;-75
2022/04/25 12:20:29;;;;;;;;;;;20.70;96.30;;;;;;5060013;28;19928;-75
2022/04/25 12:22:59;;;;;;;;;;;20.60;96.20;;;;;;5060818;28;20398;-75
2022/04/25 12:25:28;;;;;;;;;;;20.50;96.00;;;;;;5062556;28;19924;-76
2022/04/25 12:28:20;;;;;;;;;;;20.70;95.50;;;;;;5052203;28;20060;-76
2022/04/25 12:30:47;;;;;;;;;;;20.80;96.00;;;;;;5061830;28;19924;-75
2022/04/25 12:33:14;;;;;;;;;;;21.50;95.90;;;;;;5057644;28;21207;-74
2022/04/25 12:35:42;;;;;;;;;;;22.10;95.70;;;;;;5058735;28;20405;-75
2022/04/25 12:38:09;;;;;;;;;;;22.70;95.60;;;;;;5059133;28;19936;-74
2022/04/25 12:40:55;;;;;;;;;;;22.80;95.40;;;;;;5059326;28;19924;-74
2022/04/25 12:43:34;;;;;;;;;;;22.40;94.70;;;;;;5059151;28;20394;-76
2022/04/25 12:46:05;;;;;;;;;;;22.20;95.20;;;;;;5063361;28;19924;-75
2022/04/25 12:48:53;;;;;;;;;;;21.80;95.20;;;;;;5065744;28;20387;-75
2022/04/25 12:51:31;;;;;;;;;;;21.60;95.20;;;;;;5067044;28;19931;-75
2022/04/25 12:53:58;;;;;;;;;;;21.10;95.50;;;;;;5065776;28;19924;-76
2022/04/25 12:56:32;;;;;;;;;;;20.70;96.40;;;;;;5064800;28;19931;-75
2022/04/25 12:58:59;;;;;;;;;;;21.00;96.80;;;;;;5073145;28;19924;-75
2022/04/25 13:01:27;;;;;;;;;;;21.10;95.80;;;;;;5066477;28;19932;-75
2022/04/25 13:04:14;;;;;;;;;;;21.40;95.40;;;;;;5066530;28;19954;-75
2022/04/25 13:06:41;;;;;;;;;;;21.30;95.50;;;;;;5058855;28;19924;-75
2022/04/25 13:09:08;;;;;;;;;;;21.00;95.50;;;;;;5065542;28;19924;-75
2022/04/25 13:11:53;;;;;;;;;;;21.30;96.00;;;;;;5066748;28;19933;-76
2022/04/25 13:14:19;;;;;;;;;;;21.20;96.10;;;;;;5066128;28;19932;-75
2022/04/25 13:16:46;;;;;;;;;;;21.20;96.70;;;;;;5064081;28;19928;-76
2022/04/25 13:19:13;;;;;;;;;;;22.00;95.60;;;;;;5062918;28;20227;-73
2022/04/25 13:21:42;;;;;;;;;;;22.70;94.70;;;;;;5066393;28;19948;-74
2022/04/25 13:24:09;;;;;;;;;;;23.60;94.40;;;;;;5066917;28;19943;-74
2022/04/25 13:26:35;;;;;;;;;;;24.30;94.00;;;;;;5066450;28;20314;-74
2022/04/25 13:29:02;;;;;;;;;;;24.10;93.30;;;;;;5065591;28;19932;-74
2022/04/25 13:31:29;;;;;;;;;;;23.40;94.20;;;;;;5066631;28;19933;-75
2022/04/25 13:33:57;;;;;;;;;;;23.10;93.60;;;;;;5062498;28;19924;-74
2022/04/25 13:36:25;;;;;;;;;;;23.70;93.80;;;;;;5063437;28;20007;-74
2022/04/25 13:38:51;;;;;;;;;;;23.20;93.00;;;;;;5063644;28;20398;-76
2022/04/25 13:41:19;;;;;;;;;;;22.40;93.90;;;;;;5078035;28;19943;-76
2022/04/25 13:43:49;;;;;;;;;;;22.40;94.60;;;;;;5057635;28;19947;-74
2022/04/25 13:46:17;;;;;;;;;;;23.30;93.60;;;;;;5061349;28;19925;-74
2022/04/25 13:48:44;;;;;;;;;;;24.10;93.60;;;;;;5059950;28;20322;-74
2022/04/25 13:51:11;;;;;;;;;;;23.20;93.20;;;;;;5058156;28;19935;-75
2022/04/25 13:53:42;;;;;;;;;;;23.30;93.60;;;;;;5066551;28;19924;-75
2022/04/25 13:56:08;;;;;;;;;;;24.40;92.70;;;;;;5070351;28;19924;-75
2022/04/25 13:58:39;;;;;;;;;;;24.60;92.90;;;;;;5065363;28;19924;-74
2022/04/25 14:01:06;;;;;;;;;;;22.90;92.90;;;;;;5064010;28;19950;-75
2022/04/25 14:03:33;;;;;;;;;;;21.80;94.20;;;;;;5065530;28;19932;-75
2022/04/25 14:06:01;;;;;;;;;;;21.00;94.60;;;;;;5062168;28;19989;-75
2022/04/25 14:08:28;;;;;;;;;;;20.70;94.20;;;;;;5062514;28;19932;-75
2022/04/25 14:10:55;;;;;;;;;;;21.30;94.70;;;;;;5070790;28;19924;-75
2022/04/25 14:13:22;;;;;;;;;;;21.80;95.00;;;;;;5065831;28;19944;-75
2022/04/25 14:15:49;;;;;;;;;;;22.60;94.50;;;;;;5063811;28;19988;-75
2022/04/25 14:18:16;;;;;;;;;;;23.30;93.60;;;;;;5058158;28;19925;-75
2022/04/25 14:20:45;;;;;;;;;;;23.70;94.10;;;;;;5080177;28;19933;-75
2022/04/25 14:23:12;;;;;;;;;;;24.10;93.10;;;;;;5057701;28;19928;-75
2022/04/25 14:25:39;;;;;;;;;;;23.80;93.20;;;;;;5064173;28;19929;-75
2022/04/25 14:28:13;;;;;;;;;;;23.90;92.40;;;;;;5060066;28;19924;-75
2022/04/25 14:30:41;;;;;;;;;;;23.70;92.00;;;;;;5055623;28;19935;-75
2022/04/25 14:33:11;;;;;;;;;;;23.90;91.90;;;;;;5057725;28;19928;-74
2022/04/25 14:35:41;;;;;;;;;;;24.30;91.80;;;;;;5060208;28;20390;-74
2022/04/25 14:38:08;;;;;;;;;;;23.20;91.60;;;;;;5063561;28;19924;-74
2022/04/25 14:40:34;;;;;;;;;;;21.50;92.20;;;;;;5061414;28;20401;-73
2022/04/25 14:43:01;;;;;;;;;;;20.30;93.40;;;;;;5055322;28;20432;-74
2022/04/25 14:45:28;;;;;;;;;;;19.20;94.20;;;;;;5062417;28;19931;-73
2022/04/25 14:47:54;;;;;;;;;;;18.80;96.50;;;;;;5064745;28;19950;-74
2022/04/25 14:55:51;;;;;;;;;;;18.00;95.50;;;;;;5052952;28;19933;-75
2022/04/25 14:58:18;;;;;;;;;;;17.80;95.70;;;;;;5060001;28;19924;-74
2022/04/25 15:00:45;;;;;;;;;;;17.90;95.90;;;;;;5055804;28;20334;-75
2022/04/25 15:03:16;;;;;;;;;;;17.80;95.90;;;;;;5055898;28;19924;-75
2022/04/25 15:05:43;;;;;;;;;;;17.60;95.50;;;;;;5054971;28;19924;-75
2022/04/25 15:08:11;;;;;;;;;;;17.60;96.50;;;;;;5075999;28;19936;-73
2022/04/25 15:10:39;;;;;;;;;;;17.60;96.60;;;;;;5067341;28;20027;-74
2022/04/25 15:13:06;;;;;;;;;;;17.70;96.00;;;;;;5055545;28;19963;-75
2022/04/25 15:15:34;;;;;;;;;;;17.70;96.50;;;;;;5058417;28;19956;-75
2022/04/25 15:18:03;;;;;;;;;;;17.70;97.00;;;;;;5054960;28;19928;-74